createdAt,value
2019-05-22T00:02:18.446Z,12.30
2019-05-22T00:04:51.644Z,12.30
2019-05-22T00:07:21.035Z,12.30
2019-05-22T00:09:52.306Z,12.30
2019-05-22T00:12:20.772Z,12.30
2019-05-22T00:14:50.913Z,12.30
2019-05-22T00:17:23.406Z,12.30
2019-05-22T00:19:52.417Z,12.30
2019-05-22T00:22:22.942Z,12.30
2019-05-22T00:24:52.617Z,12.30
2019-05-22T00:27:22.490Z,12.30
2019-05-22T00:29:54.121Z,12.30
2019-05-22T00:32:24.474Z,12.30
2019-05-22T00:34:55.142Z,12.20
2019-05-22T00:37:23.825Z,12.20
2019-05-22T00:39:52.764Z,12.20
2019-05-22T00:42:23.802Z,12.20
2019-05-22T00:44:54.370Z,12.20
2019-05-22T00:47:24.838Z,12.20
2019-05-22T00:49:55.900Z,12.20
2019-05-22T00:52:44.773Z,12.10
2019-05-22T00:55:24.215Z,12.10
2019-05-22T00:58:03.438Z,12.10
2019-05-22T01:00:35.688Z,12.10
2019-05-22T01:03:05.838Z,12.10
2019-05-22T01:05:36.561Z,12.10
2019-05-22T01:08:08.413Z,12.10
2019-05-22T01:10:38.596Z,12.10
2019-05-22T01:13:07.811Z,12.10
2019-05-22T01:15:38.444Z,12.10
2019-05-22T01:18:10.991Z,12.10
2019-05-22T01:20:42.337Z,12.10
2019-05-22T01:23:13.813Z,12.00
2019-05-22T01:25:43.028Z,12.10
2019-05-22T01:28:13.141Z,12.00
2019-05-22T01:30:43.645Z,12.00
2019-05-22T01:33:23.242Z,12.00
2019-05-22T01:35:56.034Z,12.00
2019-05-22T01:38:25.855Z,12.00
2019-05-22T01:41:05.550Z,12.00
2019-05-22T01:43:37.774Z,12.00
2019-05-22T01:46:06.224Z,12.00
2019-05-22T01:48:37.181Z,12.00
2019-05-22T01:51:07.393Z,12.00
2019-05-22T01:53:42.562Z,11.90
2019-05-22T01:56:12.888Z,12.00
2019-05-22T01:58:43.843Z,11.90
2019-05-22T02:01:19.092Z,11.90
2019-05-22T02:03:48.048Z,11.90
2019-05-22T02:06:19.403Z,11.90
2019-05-22T02:09:11.982Z,11.90
2019-05-22T02:11:42.483Z,11.90
2019-05-22T02:14:14.122Z,11.90
2019-05-22T02:16:56.212Z,11.90
2019-05-22T02:19:16.680Z,11.90
2019-05-22T02:21:45.734Z,11.90
2019-05-22T02:24:15.836Z,11.90
2019-05-22T02:26:45.554Z,11.90
2019-05-22T02:29:16.709Z,11.90
2019-05-22T02:31:45.155Z,11.90
2019-05-22T02:34:15.263Z,11.90
2019-05-22T02:36:45.389Z,11.90
2019-05-22T02:39:17.967Z,11.90
2019-05-22T02:41:53.062Z,11.90
2019-05-22T02:44:23.787Z,11.90
2019-05-22T02:46:53.381Z,11.90
2019-05-22T02:49:23.963Z,11.90
2019-05-22T02:51:54.076Z,11.90
2019-05-22T02:54:22.682Z,11.90
2019-05-22T02:56:51.656Z,11.90
2019-05-22T02:59:21.163Z,11.90
2019-05-22T03:01:49.687Z,11.90
2019-05-22T03:04:20.151Z,11.90
2019-05-22T03:06:51.110Z,11.80
2019-05-22T03:09:22.510Z,11.80
2019-05-22T03:12:01.500Z,11.80
2019-05-22T03:14:32.169Z,11.80
2019-05-22T03:17:04.775Z,11.80
2019-05-22T03:19:45.587Z,11.80
2019-05-22T03:22:29.008Z,11.80
2019-05-22T03:25:02.078Z,11.80
2019-05-22T03:27:45.241Z,11.80
2019-05-22T03:30:20.033Z,11.80
2019-05-22T03:32:49.260Z,11.80
2019-05-22T03:35:18.436Z,11.80
2019-05-22T03:37:47.552Z,11.80
2019-05-22T03:40:16.491Z,11.80
2019-05-22T03:42:46.283Z,11.80
2019-05-22T03:45:16.628Z,11.80
2019-05-22T03:47:45.169Z,11.80
2019-05-22T03:50:15.326Z,11.80
2019-05-22T03:52:44.338Z,11.80
2019-05-22T03:55:14.190Z,11.80
2019-05-22T03:57:44.743Z,11.80
2019-05-22T04:00:17.565Z,11.80
2019-05-22T04:02:49.123Z,11.80
2019-05-22T04:05:20.613Z,11.80
2019-05-22T04:07:49.944Z,11.70
2019-05-22T04:10:19.540Z,11.70
2019-05-22T04:12:50.038Z,11.70
2019-05-22T04:15:19.127Z,11.70
2019-05-22T04:17:48.628Z,11.70
2019-05-22T04:20:19.846Z,11.70
2019-05-22T04:22:51.002Z,11.80
2019-05-22T04:25:19.896Z,11.70
2019-05-22T04:27:48.444Z,11.70
2019-05-22T04:30:18.526Z,11.70
2019-05-22T04:32:48.454Z,11.70
2019-05-22T04:35:18.994Z,11.70
2019-05-22T04:37:49.569Z,11.80
2019-05-22T04:40:27.392Z,11.80
2019-05-22T04:43:00.207Z,11.80
2019-05-22T04:45:29.140Z,11.80
2019-05-22T04:48:01.363Z,11.80
2019-05-22T04:50:31.147Z,11.80
2019-05-22T04:53:00.893Z,11.80
2019-05-22T04:55:30.688Z,11.90
2019-05-22T04:58:01.924Z,11.90
2019-05-22T05:00:31.403Z,11.90
2019-05-22T05:03:00.805Z,11.90
2019-05-22T05:05:30.956Z,11.90
2019-05-22T05:08:00.738Z,11.90
2019-05-22T05:10:29.263Z,11.90
2019-05-22T05:12:59.489Z,11.90
2019-05-22T05:15:27.991Z,11.80
2019-05-22T05:17:56.471Z,11.80
2019-05-22T05:20:24.927Z,11.80
2019-05-22T05:22:53.728Z,11.80
2019-05-22T05:25:23.995Z,11.80
2019-05-22T05:27:52.534Z,11.80
2019-05-22T05:30:22.533Z,11.80
2019-05-22T05:32:51.536Z,11.80
2019-05-22T05:35:20.563Z,11.80
2019-05-22T05:37:49.764Z,11.90
2019-05-22T05:40:34.693Z,12.00
2019-05-22T05:43:05.560Z,12.10
2019-05-22T05:45:34.848Z,12.10
2019-05-22T05:48:06.314Z,12.10
2019-05-22T05:50:40.028Z,12.10
2019-05-22T05:53:08.956Z,12.10
2019-05-22T05:56:01.538Z,12.10
2019-05-22T05:58:32.406Z,12.10
2019-05-22T06:01:11.419Z,12.10
2019-05-22T06:03:40.627Z,12.10
2019-05-22T06:06:25.958Z,12.20
2019-05-22T06:08:56.635Z,12.10
2019-05-22T06:11:34.463Z,12.10
2019-05-22T06:14:06.422Z,12.20
2019-05-22T06:16:57.438Z,12.20
2019-05-22T06:19:28.508Z,12.20
2019-05-22T06:21:58.424Z,12.40
2019-05-22T06:24:36.905Z,12.40
2019-05-22T06:27:14.889Z,12.50
2019-05-22T06:29:52.928Z,12.40
2019-05-22T06:32:29.107Z,12.60
2019-05-22T06:34:59.782Z,12.60
2019-05-22T06:37:32.442Z,12.60
2019-05-22T06:40:01.643Z,12.50
2019-05-22T06:42:30.627Z,12.60
2019-05-22T06:44:59.146Z,12.70
2019-05-22T06:47:28.821Z,12.80
2019-05-22T06:49:57.364Z,12.90
2019-05-22T06:52:26.360Z,12.90
2019-05-22T06:54:55.518Z,13.10
2019-05-22T06:57:26.445Z,13.00
2019-05-22T07:00:12.346Z,12.90
2019-05-22T07:02:26.203Z,13.00
2019-05-22T07:04:55.296Z,13.00
2019-05-22T07:07:24.845Z,13.30
2019-05-22T07:09:53.376Z,13.40
2019-05-22T07:12:23.464Z,13.80
2019-05-22T07:15:00.707Z,14.10
2019-05-22T07:17:29.942Z,14.20
2019-05-22T07:19:59.524Z,14.20
2019-05-22T07:22:28.557Z,14.10
2019-05-22T07:24:57.942Z,13.90
2019-05-22T07:27:26.781Z,13.80
2019-05-22T07:29:56.120Z,13.70
2019-05-22T07:32:24.847Z,13.80
2019-05-22T07:34:53.611Z,13.90
2019-05-22T07:37:23.765Z,14.00
2019-05-22T07:39:52.314Z,13.90
2019-05-22T07:42:20.840Z,13.70
2019-05-22T07:44:49.410Z,13.70
2019-05-22T07:47:21.939Z,13.90
2019-05-22T07:49:50.358Z,14.10
2019-05-22T07:52:19.551Z,14.30
2019-05-22T07:54:49.136Z,14.50
2019-05-22T07:57:23.120Z,14.50
2019-05-22T07:59:52.699Z,14.30
2019-05-22T08:02:24.991Z,14.00
2019-05-22T08:04:53.796Z,13.90
2019-05-22T08:07:24.472Z,13.90
2019-05-22T08:09:53.548Z,14.00
2019-05-22T08:12:23.186Z,14.20
2019-05-22T08:14:52.564Z,14.10
2019-05-22T08:17:21.125Z,14.00
2019-05-22T08:19:49.585Z,14.00
2019-05-22T08:22:19.282Z,13.90
2019-05-22T08:24:48.106Z,14.10
2019-05-22T08:27:19.698Z,14.30
2019-05-22T08:29:49.007Z,14.20
2019-05-22T08:32:18.591Z,14.20
2019-05-22T08:34:47.571Z,14.40
2019-05-22T08:37:17.929Z,14.90
2019-05-22T08:39:47.115Z,15.40
2019-05-22T08:42:18.084Z,15.50
2019-05-22T08:44:47.318Z,15.40
2019-05-22T08:47:15.856Z,15.40
2019-05-22T08:49:44.636Z,15.50
2019-05-22T08:52:23.020Z,15.20
2019-05-22T08:54:46.311Z,15.20
2019-05-22T08:57:15.686Z,15.30
2019-05-22T08:59:44.769Z,15.60
2019-05-22T09:02:13.853Z,15.80
2019-05-22T09:04:42.353Z,15.90
2019-05-22T09:07:10.904Z,16.00
2019-05-22T09:09:39.395Z,16.10
2019-05-22T09:12:09.498Z,16.10
2019-05-22T09:14:38.257Z,15.90
2019-05-22T09:17:07.489Z,15.90
2019-05-22T09:19:36.825Z,16.00
2019-05-22T09:22:07.259Z,16.10
2019-05-22T09:24:38.628Z,16.30
2019-05-22T09:27:09.026Z,16.50
2019-05-22T09:29:37.846Z,16.50
2019-05-22T09:32:07.396Z,16.10
2019-05-22T09:34:37.023Z,16.00
2019-05-22T09:37:05.545Z,16.00
2019-05-22T09:39:34.524Z,16.00
2019-05-22T09:42:02.969Z,16.20
2019-05-22T09:44:31.474Z,16.50
2019-05-22T09:47:00.262Z,16.70
2019-05-22T09:49:29.666Z,17.10
2019-05-22T09:51:58.668Z,17.50
2019-05-22T09:54:27.749Z,17.70
2019-05-22T09:56:56.557Z,17.20
2019-05-22T09:59:25.170Z,17.00
2019-05-22T10:01:55.259Z,16.80
2019-05-22T10:04:24.329Z,16.60
2019-05-22T10:06:52.838Z,17.00
2019-05-22T10:09:21.738Z,17.10
2019-05-22T10:11:50.269Z,17.30
2019-05-22T10:14:19.837Z,17.70
2019-05-22T10:16:48.932Z,18.30
2019-05-22T10:19:17.645Z,18.50
2019-05-22T10:21:48.621Z,19.10
2019-05-22T10:24:19.543Z,19.40
2019-05-22T10:26:48.805Z,19.50
2019-05-22T10:29:17.866Z,18.60
2019-05-22T10:31:46.461Z,18.20
2019-05-22T10:34:15.357Z,18.30
2019-05-22T10:36:44.428Z,18.70
2019-05-22T10:39:13.178Z,19.40
2019-05-22T10:41:42.502Z,20.70
2019-05-22T10:44:11.835Z,20.40
2019-05-22T10:46:40.760Z,20.30
2019-05-22T10:49:09.212Z,20.20
2019-05-22T10:51:39.686Z,20.40
2019-05-22T10:54:08.738Z,20.00
2019-05-22T10:56:37.206Z,18.80
2019-05-22T10:59:07.410Z,18.60
2019-05-22T11:01:37.719Z,19.00
2019-05-22T11:04:07.584Z,18.80
2019-05-22T11:06:36.247Z,18.30
2019-05-22T11:09:07.234Z,18.70
2019-05-22T11:11:35.974Z,19.10
2019-05-22T11:14:09.351Z,20.10
2019-05-22T11:16:36.412Z,20.40
2019-05-22T11:19:05.966Z,19.80
2019-05-22T11:21:36.127Z,19.30
2019-05-22T11:24:08.926Z,19.10
2019-05-22T11:26:37.590Z,19.50
2019-05-22T11:29:07.254Z,19.10
2019-05-22T11:31:36.729Z,18.80
2019-05-22T11:34:05.984Z,18.50
2019-05-22T11:36:35.245Z,18.00
2019-05-22T11:39:05.541Z,18.60
2019-05-22T11:41:35.081Z,19.20
2019-05-22T11:44:04.416Z,20.20
2019-05-22T11:46:33.045Z,21.10
2019-05-22T11:49:01.602Z,21.00
2019-05-22T11:51:30.128Z,20.50
2019-05-22T11:54:08.755Z,20.20
2019-05-22T11:56:30.402Z,19.80
2019-05-22T11:59:00.367Z,19.70
2019-05-22T12:01:28.958Z,20.40
2019-05-22T12:03:59.388Z,20.70
2019-05-22T12:06:29.882Z,20.50
2019-05-22T12:08:58.431Z,19.70
2019-05-22T12:11:29.628Z,19.40
2019-05-22T12:13:58.795Z,20.00
2019-05-22T12:16:28.276Z,20.50
2019-05-22T12:18:59.096Z,20.30
2019-05-22T12:21:28.651Z,19.70
2019-05-22T12:23:58.037Z,19.80
2019-05-22T12:26:26.601Z,19.70
2019-05-22T12:28:55.251Z,19.80
2019-05-22T12:31:24.565Z,20.30
2019-05-22T12:33:53.628Z,20.40
2019-05-22T12:36:24.930Z,20.70
2019-05-22T12:38:54.719Z,21.20
2019-05-22T12:41:23.848Z,21.90
2019-05-22T12:43:53.994Z,22.00
2019-05-22T12:46:23.296Z,22.10
2019-05-22T12:48:53.436Z,21.80
2019-05-22T12:51:21.919Z,21.70
2019-05-22T12:53:50.511Z,21.40
2019-05-22T12:56:19.573Z,21.60
2019-05-22T12:58:49.000Z,22.10
2019-05-22T13:01:18.634Z,22.20
2019-05-22T13:03:49.177Z,22.90
2019-05-22T13:06:18.016Z,23.40
2019-05-22T13:08:46.909Z,23.70
2019-05-22T13:11:16.429Z,23.90
2019-05-22T13:13:45.982Z,23.40
2019-05-22T13:16:15.077Z,23.20
2019-05-22T13:18:44.867Z,23.50
2019-05-22T13:21:15.446Z,23.70
2019-05-22T13:23:45.717Z,23.90
2019-05-22T13:26:15.854Z,23.50
2019-05-22T13:28:46.981Z,22.40
2019-05-22T13:31:17.037Z,21.60
2019-05-22T13:33:46.809Z,21.30
2019-05-22T13:36:18.581Z,21.20
2019-05-22T13:38:47.979Z,21.40
2019-05-22T13:41:16.966Z,21.90
2019-05-22T13:43:45.429Z,22.30
2019-05-22T13:46:15.531Z,22.80
2019-05-22T13:48:44.062Z,23.50
2019-05-22T13:51:14.015Z,24.20
2019-05-22T13:53:43.056Z,23.20
2019-05-22T13:56:12.148Z,21.70
2019-05-22T13:58:42.227Z,21.40
2019-05-22T14:01:10.959Z,22.20
2019-05-22T14:03:40.425Z,24.80
2019-05-22T14:06:09.666Z,27.10
2019-05-22T14:08:38.196Z,27.00
2019-05-22T14:11:08.089Z,25.40
2019-05-22T14:13:54.898Z,24.20
2019-05-22T14:16:25.787Z,23.20
2019-05-22T14:18:54.248Z,24.00
2019-05-22T14:21:22.774Z,26.90
2019-05-22T14:23:51.655Z,29.00
2019-05-22T14:26:21.500Z,29.30
2019-05-22T14:28:51.050Z,28.90
2019-05-22T14:31:19.775Z,30.70
2019-05-22T14:33:48.469Z,32.70
2019-05-22T14:36:17.459Z,33.90
2019-05-22T14:38:46.006Z,35.40
2019-05-22T14:41:15.990Z,36.30
2019-05-22T14:43:44.711Z,36.10
2019-05-22T14:46:13.432Z,34.40
2019-05-22T14:48:43.037Z,31.80
2019-05-22T14:51:12.311Z,29.70
2019-05-22T14:53:41.770Z,28.30
2019-05-22T14:56:11.602Z,27.50
2019-05-22T14:58:41.655Z,29.30
2019-05-22T15:01:11.028Z,32.80
2019-05-22T15:03:40.023Z,35.60
2019-05-22T15:06:09.528Z,38.00
2019-05-22T15:08:44.497Z,39.40
2019-05-22T15:11:13.164Z,40.60
2019-05-22T15:13:41.890Z,40.80
2019-05-22T15:16:11.421Z,41.00
2019-05-22T15:18:40.374Z,40.50
2019-05-22T15:21:09.397Z,40.30
2019-05-22T15:23:48.437Z,40.20
2019-05-22T15:26:17.251Z,39.50
2019-05-22T15:28:46.532Z,39.70
2019-05-22T15:31:15.155Z,39.30
2019-05-22T15:33:44.846Z,39.70
2019-05-22T15:36:16.979Z,40.40
2019-05-22T15:38:47.421Z,41.50
2019-05-22T15:41:16.259Z,38.80
2019-05-22T15:43:50.411Z,36.30
2019-05-22T15:46:16.920Z,36.60
2019-05-22T15:48:47.493Z,33.80
2019-05-22T15:51:19.281Z,31.10
2019-05-22T15:53:48.043Z,28.80
2019-05-22T15:56:18.237Z,26.70
2019-05-22T15:58:49.789Z,26.50
2019-05-22T16:01:21.760Z,28.30
2019-05-22T16:03:51.919Z,30.60
2019-05-22T16:06:23.337Z,32.80
2019-05-22T16:08:54.029Z,34.50
2019-05-22T16:11:25.393Z,35.90
2019-05-22T16:14:06.361Z,36.80
2019-05-22T16:16:36.390Z,37.60
2019-05-22T16:19:08.063Z,37.50
2019-05-22T16:21:40.371Z,36.50
2019-05-22T16:24:11.663Z,34.40
2019-05-22T16:26:41.206Z,33.90
2019-05-22T16:29:10.997Z,34.20
2019-05-22T16:31:42.566Z,34.40
2019-05-22T16:34:13.141Z,34.70
2019-05-22T16:36:42.972Z,34.70
2019-05-22T16:39:13.023Z,34.80
2019-05-22T16:41:43.011Z,34.40
2019-05-22T16:44:20.528Z,34.00
2019-05-22T16:46:49.820Z,34.10
2019-05-22T16:49:18.760Z,34.00
2019-05-22T16:51:48.673Z,32.40
2019-05-22T16:54:25.699Z,30.80
2019-05-22T16:56:55.088Z,30.40
2019-05-22T16:59:23.565Z,28.10
2019-05-22T17:01:59.565Z,27.80
2019-05-22T17:04:24.109Z,28.70
2019-05-22T17:06:53.296Z,29.00
2019-05-22T17:09:21.809Z,28.70
2019-05-22T17:11:51.628Z,28.10
2019-05-22T17:14:21.626Z,28.10
2019-05-22T17:16:50.823Z,28.50
2019-05-22T17:19:27.012Z,28.70
2019-05-22T17:21:49.945Z,28.60
2019-05-22T17:24:21.280Z,27.90
2019-05-22T17:26:50.159Z,27.30
2019-05-22T17:29:19.154Z,26.70
2019-05-22T17:31:47.931Z,26.20
2019-05-22T17:34:33.622Z,25.80
2019-05-22T17:37:06.193Z,25.20
2019-05-22T17:39:36.815Z,24.70
2019-05-22T17:42:07.879Z,24.70
2019-05-22T17:44:38.043Z,24.70
2019-05-22T17:47:08.276Z,24.60
2019-05-22T17:49:37.050Z,24.60
2019-05-22T17:52:05.627Z,24.30
2019-05-22T17:54:34.225Z,23.80
2019-05-22T17:57:04.093Z,23.20
2019-05-22T17:59:32.572Z,22.50
2019-05-22T18:02:01.844Z,22.00
2019-05-22T18:04:30.471Z,21.50
2019-05-22T18:06:59.108Z,21.20
2019-05-22T18:09:27.848Z,21.10
2019-05-22T18:11:56.584Z,20.90
2019-05-22T18:14:25.657Z,20.80
2019-05-22T18:17:00.305Z,20.60
2019-05-22T18:19:29.159Z,20.40
2019-05-22T18:21:57.711Z,20.20
2019-05-22T18:24:26.644Z,20.00
2019-05-22T18:26:55.468Z,19.70
2019-05-22T18:29:24.233Z,19.40
2019-05-22T18:31:53.086Z,19.30
2019-05-22T18:34:21.564Z,19.10
2019-05-22T18:36:50.530Z,18.80
2019-05-22T18:39:19.538Z,18.50
2019-05-22T18:41:47.975Z,18.20
2019-05-22T18:44:16.473Z,18.00
2019-05-22T18:46:44.996Z,17.90
2019-05-22T18:49:13.466Z,17.80
2019-05-22T18:51:42.220Z,17.60
2019-05-22T18:54:10.685Z,17.50
2019-05-22T18:56:39.212Z,17.40
2019-05-22T18:59:08.407Z,17.20
2019-05-22T19:01:36.859Z,17.10
2019-05-22T19:04:05.490Z,17.00
2019-05-22T19:06:34.005Z,17.00
2019-05-22T19:09:02.897Z,16.90
2019-05-22T19:11:31.775Z,16.80
2019-05-22T19:14:00.366Z,16.70
2019-05-22T19:16:29.173Z,16.70
2019-05-22T19:18:57.815Z,16.70
2019-05-22T19:21:26.610Z,16.60
2019-05-22T19:23:55.089Z,16.50
2019-05-22T19:26:23.876Z,16.30
2019-05-22T19:28:52.598Z,16.10
2019-05-22T19:31:21.151Z,16.00
2019-05-22T19:33:49.586Z,15.90
2019-05-22T19:36:18.716Z,15.90
2019-05-22T19:38:47.238Z,15.80
2019-05-22T19:41:16.463Z,15.80
2019-05-22T19:43:44.978Z,15.70
2019-05-22T19:46:13.868Z,15.50
2019-05-22T19:48:43.365Z,14.90
2019-05-22T19:51:14.950Z,14.40
2019-05-22T19:53:43.665Z,14.20
2019-05-22T19:56:12.846Z,14.10
2019-05-22T19:58:41.828Z,14.10
2019-05-22T20:01:13.351Z,14.10
2019-05-22T20:03:42.309Z,14.00
2019-05-22T20:06:11.570Z,14.00
2019-05-22T20:08:40.454Z,13.90
2019-05-22T20:11:09.428Z,13.90
2019-05-22T20:13:38.521Z,13.80
2019-05-22T20:16:07.013Z,13.70
2019-05-22T20:18:35.910Z,13.70
2019-05-22T20:21:04.442Z,13.60
2019-05-22T20:23:36.396Z,13.50
2019-05-22T20:26:03.533Z,13.40
2019-05-22T20:28:32.003Z,13.20
2019-05-22T20:31:00.540Z,13.00
2019-05-22T20:33:29.026Z,12.80
2019-05-22T20:36:00.550Z,12.70
2019-05-22T20:38:29.069Z,12.60
2019-05-22T20:40:58.445Z,12.50
2019-05-22T20:43:27.954Z,12.40
2019-05-22T20:45:58.344Z,12.30
2019-05-22T20:48:29.780Z,12.20
2019-05-22T20:50:59.965Z,12.00
2019-05-22T20:53:31.112Z,11.80
2019-05-22T20:56:00.187Z,11.70
2019-05-22T20:58:30.743Z,11.60
2019-05-22T21:01:00.903Z,11.50
2019-05-22T21:03:31.829Z,11.40
2019-05-22T21:06:05.472Z,11.40
2019-05-22T21:08:33.929Z,11.30
2019-05-22T21:11:03.238Z,11.30
2019-05-22T21:13:31.882Z,11.20
2019-05-22T21:16:01.072Z,11.10
2019-05-22T21:18:31.896Z,11.00
2019-05-22T21:21:00.893Z,11.00
2019-05-22T21:23:30.430Z,10.90
2019-05-22T21:25:59.014Z,10.90
2019-05-22T21:28:28.110Z,10.80
2019-05-22T21:30:57.626Z,10.70
2019-05-22T21:33:26.627Z,10.60
2019-05-22T21:35:55.540Z,10.60
2019-05-22T21:38:25.099Z,10.40
2019-05-22T21:40:56.574Z,10.40
2019-05-22T21:43:25.101Z,10.50
2019-05-22T21:45:53.974Z,10.50
2019-05-22T21:48:24.519Z,10.40
2019-05-22T21:50:52.971Z,10.40
2019-05-22T21:53:21.875Z,10.40
2019-05-22T21:56:03.635Z,10.30
2019-05-22T21:58:21.430Z,10.30
2019-05-22T22:00:56.800Z,10.20
2019-05-22T22:03:29.504Z,10.20
2019-05-22T22:05:59.484Z,10.10
2019-05-22T22:08:29.351Z,10.10
2019-05-22T22:10:58.540Z,10.00
2019-05-22T22:13:27.912Z,9.90
2019-05-22T22:15:56.446Z,9.90
2019-05-22T22:18:25.939Z,9.80
2019-05-22T22:20:56.409Z,9.80
2019-05-22T22:23:25.491Z,9.80
2019-05-22T22:25:54.094Z,9.70
2019-05-22T22:28:24.770Z,9.60
2019-05-22T22:31:12.208Z,9.60
2019-05-22T22:33:42.175Z,9.50
2019-05-22T22:36:11.285Z,9.50
2019-05-22T22:38:39.741Z,9.50
2019-05-22T22:41:09.925Z,9.50
2019-05-22T22:43:40.784Z,9.40
2019-05-22T22:46:22.744Z,9.40
2019-05-22T22:48:53.313Z,9.30
2019-05-22T22:51:24.666Z,9.30
2019-05-22T22:53:55.132Z,9.20
2019-05-22T22:56:25.694Z,9.20
2019-05-22T22:58:54.606Z,9.10
2019-05-22T23:01:27.778Z,9.10
2019-05-22T23:03:59.903Z,9.00
2019-05-22T23:06:28.341Z,9.00
2019-05-22T23:08:57.351Z,8.90
2019-05-22T23:11:27.568Z,8.90
2019-05-22T23:13:57.306Z,9.00
2019-05-22T23:16:27.502Z,9.00
2019-05-22T23:19:15.817Z,9.00
2019-05-22T23:21:44.908Z,9.00
2019-05-22T23:24:14.020Z,9.00
2019-05-22T23:26:43.632Z,9.00
2019-05-22T23:29:12.588Z,9.10
2019-05-22T23:31:41.284Z,9.10
2019-05-22T23:34:10.410Z,9.00
2019-05-22T23:36:39.306Z,8.90
2019-05-22T23:39:12.947Z,8.80
2019-05-22T23:41:43.439Z,8.80
2019-05-22T23:44:13.705Z,8.80
2019-05-22T23:46:42.965Z,8.80
2019-05-22T23:49:12.912Z,8.70
2019-05-22T23:51:42.168Z,8.60
2019-05-22T23:54:10.696Z,8.60
2019-05-22T23:56:40.616Z,8.60
2019-05-22T23:59:10.723Z,8.70
